Main page
METAR-TAF:

METAR-TAF

Airports :

Agra Airport

Agra, India

latitude: 27-09-27N, longitude: 077-57-39E, elevation: 168 m

Current weather observation

The report was made 47 minutes ago, at 02:30 UTC
Wind 4 kt from the West/Northwest
Temperature 24°C
Humidity 74%
Pressure 1011 hPa
Visibility: 6000 m
Clear sky

METAR: VIAG 190230Z 30004KT 6000 SKC 24/19 Q1011 NOSIG

Time: 08:47 (03:17 UTC)

Forecast

The report was made 5 hours and 47 minutes ago, at 21:30 UTC
Forecast valid from 19 at 00 UTC to 19 at 12 UTC
Wind 2 kt from variable directions
Visibility: 6000 m
Few clouds at a height of 25000 ft

TAF: VIAG 182130Z 1900/1912 VRB02KT 6000 FEW250

Weather observations and forecasts of more than 4000 airports (METAR and TAF reports).

The available stations are represented by yellow and red dots on the map.

Hover mouse over dot to see the name of the station.

Then click to see weather observations and forecasts.

To change the map : click on the green buttons with a black cross to zoom in, on the green button with a dash to zoom out, or on the green arrows for adjacent maps.


METAR-TAF: